createdAt,value
2023-03-27T00:02:44.835Z,476.00
2023-03-27T00:06:44.867Z,476.00
2023-03-27T00:10:44.986Z,474.00
2023-03-27T00:14:45.097Z,474.00
2023-03-27T00:18:45.257Z,473.00
2023-03-27T00:22:45.334Z,477.00
2023-03-27T00:26:45.455Z,477.00
2023-03-27T00:30:45.608Z,474.00
2023-03-27T00:34:45.638Z,474.00
2023-03-27T00:38:45.872Z,475.00
2023-03-27T00:42:45.859Z,478.00
2023-03-27T00:46:46.019Z,478.00
2023-03-27T00:50:46.123Z,478.00
2023-03-27T00:54:46.236Z,478.00
2023-03-27T00:58:46.309Z,480.00
2023-03-27T01:02:46.543Z,478.00
2023-03-27T01:06:46.536Z,473.00
2023-03-27T01:10:46.658Z,481.00
2023-03-27T01:14:46.882Z,481.00
2023-03-27T01:18:46.928Z,474.00
2023-03-27T01:22:47.039Z,476.00
2023-03-27T01:26:47.140Z,473.00
2023-03-27T01:30:47.304Z,469.00
2023-03-27T01:34:47.441Z,474.00
2023-03-27T01:38:48.413Z,472.00
2023-03-27T01:42:47.342Z,474.00
2023-03-27T01:46:47.360Z,468.00
2023-03-27T01:50:47.451Z,468.00
2023-03-27T01:54:47.561Z,471.00
2023-03-27T01:58:47.711Z,472.00
2023-03-27T02:02:47.907Z,476.00
2023-03-27T02:06:48.030Z,477.00
2023-03-27T02:10:48.134Z,480.00
2023-03-27T02:14:48.264Z,481.00
2023-03-27T02:18:48.430Z,476.00
2023-03-27T02:22:48.577Z,475.00
2023-03-27T02:26:48.772Z,475.00
2023-03-27T02:31:06.779Z,472.00
2023-03-27T02:34:49.845Z,476.00
2023-03-27T02:38:48.897Z,478.00
2023-03-27T02:42:48.820Z,478.00
2023-03-27T02:46:49.000Z,474.00
2023-03-27T02:50:49.155Z,471.00
2023-03-27T02:54:49.336Z,473.00
2023-03-27T02:58:49.468Z,476.00
2023-03-27T03:02:49.714Z,486.00
2023-03-27T03:06:49.854Z,485.00
2023-03-27T03:10:49.993Z,482.00
2023-03-27T03:14:50.131Z,478.00
2023-03-27T03:18:50.408Z,472.00
2023-03-27T03:22:50.498Z,473.00
2023-03-27T03:26:50.645Z,472.00
2023-03-27T03:30:50.843Z,469.00
2023-03-27T03:34:51.012Z,471.00
2023-03-27T03:38:51.139Z,476.00
2023-03-27T03:42:51.326Z,471.00
2023-03-27T03:46:51.502Z,473.00
2023-03-27T03:50:51.647Z,473.00
2023-03-27T03:54:51.836Z,467.00
2023-03-27T03:58:52.023Z,470.00
2023-03-27T04:02:52.315Z,475.00
2023-03-27T04:06:52.385Z,471.00
2023-03-27T04:10:52.563Z,469.00
2023-03-27T04:14:52.734Z,467.00
2023-03-27T04:18:53.025Z,466.00
2023-03-27T04:22:54.286Z,463.00
2023-03-27T04:26:53.092Z,470.00
2023-03-27T04:30:53.055Z,471.00
2023-03-27T04:34:53.146Z,474.00
2023-03-27T04:38:53.343Z,480.00
2023-03-27T04:42:53.515Z,474.00
2023-03-27T04:46:53.806Z,473.00
2023-03-27T04:50:54.048Z,477.00
2023-03-27T04:54:54.106Z,477.00
2023-03-27T04:58:54.295Z,477.00
2023-03-27T05:02:54.498Z,476.00
2023-03-27T05:06:54.535Z,475.00
2023-03-27T05:10:54.727Z,475.00
2023-03-27T05:14:54.709Z,478.00
2023-03-27T05:18:54.783Z,469.00
2023-03-27T05:22:54.845Z,469.00
2023-03-27T05:26:54.947Z,476.00
2023-03-27T05:30:55.300Z,477.00
2023-03-27T05:34:55.049Z,477.00
2023-03-27T05:38:55.068Z,480.00
2023-03-27T05:42:55.431Z,478.00
2023-03-27T05:46:55.453Z,584.00
2023-03-27T05:50:55.335Z,592.00
2023-03-27T05:54:55.439Z,663.00
2023-03-27T05:58:55.430Z,732.00
2023-03-27T06:02:55.504Z,899.00
2023-03-27T06:06:55.305Z,1036.00
2023-03-27T06:10:55.573Z,1037.00
2023-03-27T06:14:55.239Z,1115.00
2023-03-27T06:18:55.184Z,1193.00
2023-03-27T06:22:55.114Z,1252.00
2023-03-27T06:26:55.095Z,1327.00
2023-03-27T06:30:55.081Z,1366.00
2023-03-27T06:34:55.047Z,1453.00
2023-03-27T06:38:54.970Z,1513.00
2023-03-27T06:42:54.947Z,1519.00
2023-03-27T06:46:54.968Z,1520.00
2023-03-27T06:50:55.136Z,1497.00
2023-03-27T06:54:54.827Z,1553.00
2023-03-27T06:58:54.821Z,1584.00
2023-03-27T07:02:55.044Z,1627.00
2023-03-27T07:06:54.709Z,1557.00
2023-03-27T07:14:54.650Z,1619.00
2023-03-27T07:18:54.950Z,1605.00
2023-03-27T07:22:56.451Z,1622.00
2023-03-27T07:26:54.538Z,1652.00
2023-03-27T07:30:55.355Z,1568.00
2023-03-27T07:34:54.728Z,1593.00
2023-03-27T07:38:55.031Z,1580.00
2023-03-27T07:42:55.089Z,1560.00
2023-03-27T07:46:55.483Z,1532.00
2023-03-27T07:50:58.199Z,1543.00
2023-03-27T07:54:56.469Z,1561.00
2023-03-27T07:58:55.403Z,1521.00
2023-03-27T08:02:55.451Z,1459.00
2023-03-27T08:06:55.384Z,1405.00
2023-03-27T08:10:55.276Z,1376.00
2023-03-27T08:14:55.489Z,1320.00
2023-03-27T08:18:55.217Z,1282.00
2023-03-27T08:22:55.480Z,1249.00
2023-03-27T08:26:55.984Z,1212.00
2023-03-27T08:30:55.465Z,1166.00
2023-03-27T08:34:56.181Z,1125.00
2023-03-27T08:38:55.410Z,1025.00
2023-03-27T08:42:55.502Z,1077.00
2023-03-27T08:46:55.528Z,1116.00
2023-03-27T08:50:55.528Z,1127.00
2023-03-27T08:54:55.343Z,1216.00
2023-03-27T08:58:55.512Z,1299.00
2023-03-27T09:02:55.362Z,1333.00
2023-03-27T09:06:55.213Z,1338.00
2023-03-27T09:10:55.505Z,1336.00
2023-03-27T09:14:55.181Z,1354.00
2023-03-27T09:18:55.122Z,1378.00
2023-03-27T09:22:55.516Z,1394.00
2023-03-27T09:27:06.370Z,1441.00
2023-03-27T09:30:56.042Z,1473.00
2023-03-27T09:34:55.010Z,1500.00
2023-03-27T09:38:54.994Z,1523.00
2023-03-27T09:42:55.511Z,1549.00
2023-03-27T09:46:54.846Z,1557.00
2023-03-27T09:50:55.204Z,1617.00
2023-03-27T09:54:55.021Z,1658.00
2023-03-27T09:58:55.025Z,1658.00
2023-03-27T10:02:55.042Z,1666.00
2023-03-27T10:06:55.544Z,1679.00
2023-03-27T10:10:55.255Z,1672.00
2023-03-27T10:14:55.555Z,1692.00
2023-03-27T10:18:55.118Z,1737.00
2023-03-27T10:22:55.068Z,1751.00
2023-03-27T10:26:55.097Z,1747.00
2023-03-27T10:30:55.729Z,1755.00
2023-03-27T10:34:55.065Z,1744.00
2023-03-27T10:38:55.555Z,1742.00
2023-03-27T10:42:55.538Z,1716.00
2023-03-27T10:46:55.102Z,1654.00
2023-03-27T10:50:55.167Z,1730.00
2023-03-27T10:54:55.079Z,1704.00
2023-03-27T10:58:55.557Z,1760.00
2023-03-27T11:02:55.103Z,1769.00
2023-03-27T11:06:55.040Z,1709.00
2023-03-27T11:10:55.120Z,1769.00
2023-03-27T11:14:55.044Z,1739.00
2023-03-27T11:18:55.042Z,1732.00
2023-03-27T11:22:55.045Z,1698.00
2023-03-27T11:26:55.004Z,1662.00
2023-03-27T11:30:55.675Z,1672.00
2023-03-27T11:34:55.564Z,1646.00
2023-03-27T11:38:55.547Z,1650.00
2023-03-27T11:42:55.246Z,1599.00
2023-03-27T11:46:55.569Z,1510.00
2023-03-27T11:50:55.517Z,1477.00
2023-03-27T11:54:55.297Z,1402.00
2023-03-27T11:58:55.285Z,1287.00
2023-03-27T12:02:55.365Z,1314.00
2023-03-27T12:06:55.648Z,1267.00
2023-03-27T12:10:55.474Z,1208.00
2023-03-27T12:14:55.423Z,1224.00
2023-03-27T12:19:03.945Z,1215.00
2023-03-27T12:22:56.563Z,1257.00
2023-03-27T12:26:55.397Z,1225.00
2023-03-27T12:30:57.304Z,1208.00
2023-03-27T12:34:55.313Z,1157.00
2023-03-27T12:38:55.270Z,1094.00
2023-03-27T12:42:55.200Z,1065.00
2023-03-27T12:46:55.253Z,998.00
2023-03-27T12:50:55.563Z,985.00
2023-03-27T12:54:55.384Z,951.00
2023-03-27T12:58:55.508Z,915.00
2023-03-27T13:02:55.637Z,872.00
2023-03-27T13:06:55.688Z,836.00
2023-03-27T13:10:55.982Z,803.00
2023-03-27T13:14:55.918Z,778.00
2023-03-27T13:18:56.051Z,760.00
2023-03-27T13:22:56.205Z,746.00
2023-03-27T13:26:56.310Z,728.00
2023-03-27T13:30:56.498Z,692.00
2023-03-27T13:34:56.567Z,688.00
2023-03-27T13:38:56.724Z,673.00
2023-03-27T13:42:56.812Z,653.00
2023-03-27T13:46:57.004Z,648.00
2023-03-27T13:50:57.104Z,637.00
2023-03-27T13:54:57.296Z,627.00
2023-03-27T13:58:57.389Z,618.00
2023-03-27T14:02:57.656Z,602.00
2023-03-27T14:06:57.652Z,596.00
2023-03-27T14:10:57.771Z,582.00
2023-03-27T14:14:58.126Z,588.00
2023-03-27T14:18:58.101Z,595.00
2023-03-27T14:22:58.208Z,588.00
2023-03-27T14:26:58.366Z,590.00
2023-03-27T14:30:58.548Z,577.00
2023-03-27T14:34:58.647Z,568.00
2023-03-27T14:38:58.850Z,565.00
2023-03-27T14:42:59.019Z,568.00
2023-03-27T14:46:59.171Z,567.00
2023-03-27T14:50:59.632Z,562.00
2023-03-27T14:54:59.510Z,551.00
2023-03-27T14:58:59.746Z,541.00
2023-03-27T15:03:00.123Z,540.00
2023-03-27T15:07:00.108Z,537.00
2023-03-27T15:11:00.344Z,535.00
2023-03-27T15:15:00.475Z,531.00
2023-03-27T15:19:00.694Z,531.00
2023-03-27T15:23:00.902Z,528.00
2023-03-27T15:27:01.097Z,521.00
2023-03-27T15:31:01.390Z,521.00
2023-03-27T15:35:01.504Z,522.00
2023-03-27T15:39:01.757Z,517.00
2023-03-27T15:43:01.942Z,515.00
2023-03-27T15:47:02.005Z,512.00
2023-03-27T15:51:01.905Z,505.00
2023-03-27T15:55:01.859Z,502.00
2023-03-27T15:59:01.811Z,500.00
2023-03-27T16:03:02.322Z,499.00
2023-03-27T16:07:01.729Z,500.00
2023-03-27T16:11:01.653Z,497.00
2023-03-27T16:15:01.671Z,501.00
2023-03-27T16:19:01.581Z,499.00
2023-03-27T16:23:01.683Z,504.00
2023-03-27T16:27:01.607Z,501.00
2023-03-27T16:31:01.542Z,500.00
2023-03-27T16:35:01.505Z,498.00
2023-03-27T16:39:01.491Z,497.00
2023-03-27T16:43:01.473Z,491.00
2023-03-27T16:47:01.438Z,487.00
2023-03-27T16:51:01.373Z,488.00
2023-03-27T16:55:01.355Z,487.00
2023-03-27T16:59:01.310Z,486.00
2023-03-27T17:03:01.446Z,489.00
2023-03-27T17:07:01.328Z,488.00
2023-03-27T17:11:01.316Z,492.00
2023-03-27T17:15:01.251Z,493.00
2023-03-27T17:19:01.239Z,496.00
2023-03-27T17:23:01.173Z,499.00
2023-03-27T17:27:01.164Z,499.00
2023-03-27T17:31:04.701Z,498.00
2023-03-27T17:35:01.074Z,499.00
2023-03-27T17:39:01.026Z,499.00
2023-03-27T17:43:01.011Z,497.00
2023-03-27T17:47:01.074Z,499.00
2023-03-27T17:51:08.738Z,503.00
2023-03-27T17:55:01.864Z,503.00
2023-03-27T17:59:00.844Z,502.00
2023-03-27T18:03:00.847Z,500.00
2023-03-27T18:07:00.788Z,500.00
2023-03-27T18:11:00.800Z,498.00
2023-03-27T18:15:00.776Z,498.00
2023-03-27T18:19:00.784Z,501.00
2023-03-27T18:23:00.770Z,504.00
2023-03-27T18:27:00.723Z,504.00
2023-03-27T18:31:00.735Z,505.00
2023-03-27T18:35:00.782Z,504.00
2023-03-27T18:39:00.797Z,505.00
2023-03-27T18:43:00.883Z,503.00
2023-03-27T18:47:00.786Z,507.00
2023-03-27T18:51:00.795Z,511.00
2023-03-27T18:55:00.764Z,513.00
2023-03-27T18:59:00.762Z,510.00
2023-03-27T19:03:00.763Z,508.00
2023-03-27T19:07:00.762Z,509.00
2023-03-27T19:11:00.976Z,508.00
2023-03-27T19:15:09.740Z,510.00
2023-03-27T19:19:01.672Z,505.00
2023-03-27T19:23:00.666Z,501.00
2023-03-27T19:27:00.598Z,499.00
2023-03-27T19:31:00.651Z,498.00
2023-03-27T19:35:00.505Z,494.00
2023-03-27T19:39:00.452Z,496.00
2023-03-27T19:43:00.402Z,498.00
2023-03-27T19:47:00.424Z,503.00
2023-03-27T19:51:00.365Z,503.00
2023-03-27T19:55:00.366Z,503.00
2023-03-27T19:59:00.325Z,505.00
2023-03-27T20:03:00.404Z,505.00
2023-03-27T20:07:00.329Z,502.00
2023-03-27T20:11:00.733Z,505.00
2023-03-27T20:15:11.104Z,506.00
2023-03-27T20:19:01.346Z,506.00
2023-03-27T20:23:00.294Z,507.00
2023-03-27T20:27:00.213Z,506.00
2023-03-27T20:31:00.262Z,508.00
2023-03-27T20:35:03.351Z,512.00
2023-03-27T20:39:01.119Z,513.00
2023-03-27T20:43:00.065Z,510.00
2023-03-27T20:47:00.214Z,512.00
2023-03-27T20:51:00.034Z,510.00
2023-03-27T20:54:59.973Z,508.00
2023-03-27T20:58:59.987Z,509.00
2023-03-27T21:03:00.132Z,506.00
2023-03-27T21:06:59.995Z,502.00
2023-03-27T21:11:00.037Z,506.00
2023-03-27T21:15:00.115Z,507.00
2023-03-27T21:19:00.163Z,514.00
2023-03-27T21:23:00.179Z,514.00
2023-03-27T21:27:00.282Z,515.00
2023-03-27T21:31:00.324Z,513.00
2023-03-27T21:35:00.370Z,509.00
2023-03-27T21:39:00.381Z,506.00
2023-03-27T21:43:00.482Z,510.00
2023-03-27T21:47:00.562Z,509.00
2023-03-27T21:51:00.572Z,511.00
2023-03-27T21:55:03.377Z,514.00
2023-03-27T21:59:00.615Z,513.00
2023-03-27T22:03:00.828Z,506.00
2023-03-27T22:07:00.506Z,508.00
2023-03-27T22:11:00.509Z,507.00
2023-03-27T22:15:00.480Z,507.00
2023-03-27T22:19:00.423Z,504.00
2023-03-27T22:23:00.386Z,505.00
2023-03-27T22:27:00.330Z,509.00
2023-03-27T22:31:00.315Z,508.00
2023-03-27T22:35:00.250Z,508.00
2023-03-27T22:39:00.234Z,507.00
2023-03-27T22:43:00.221Z,506.00
2023-03-27T22:47:00.334Z,507.00
2023-03-27T22:51:00.103Z,507.00
2023-03-27T22:55:00.099Z,505.00
2023-03-27T22:59:00.019Z,502.00
2023-03-27T23:03:00.045Z,501.00
2023-03-27T23:06:59.961Z,505.00
2023-03-27T23:10:59.906Z,504.00
2023-03-27T23:14:59.974Z,504.00
2023-03-27T23:19:00.049Z,505.00
2023-03-27T23:23:00.125Z,509.00
2023-03-27T23:27:00.215Z,506.00
2023-03-27T23:31:00.306Z,504.00
2023-03-27T23:35:00.451Z,506.00
2023-03-27T23:39:00.541Z,507.00
2023-03-27T23:43:00.703Z,506.00
2023-03-27T23:47:00.797Z,505.00
2023-03-27T23:51:01.036Z,502.00
2023-03-27T23:55:01.101Z,504.00
2023-03-27T23:59:01.216Z,507.00
